Time,TemperatureF,DewpointF,PressureIn,WindDirection,WindDirectionDegrees,WindSpeedMPH,WindSpeedGustMPH,Humidity,HourlyPrecipIn,Conditions,Clouds,dailyrainin,SoftwareType,DateUTC
2013-05-09 00:08:00,68.2,58.5,30.06,WSW,247,0.0,-999.0,71,0.00,,,0.00,open2300 v1.10,2013-05-09 05:08:00,
2013-05-09 00:13:00,68.0,58.3,30.06,South,180,0.0,-999.0,71,0.00,,,0.00,open2300 v1.10,2013-05-09 05:13:00,
2013-05-09 00:18:00,67.8,58.1,30.06,SSW,202,0.0,-999.0,71,0.00,,,0.00,open2300 v1.10,2013-05-09 05:18:00,
2013-05-09 00:23:00,67.8,58.5,30.06,SSW,202,2.7,-999.0,72,0.00,,,0.00,open2300 v1.10,2013-05-09 05:23:00,
2013-05-09 00:28:00,67.6,58.3,30.06,SSW,202,0.0,-999.0,72,0.00,,,0.00,open2300 v1.10,2013-05-09 05:28:00,
2013-05-09 00:33:00,67.6,58.3,30.06,South,180,0.0,-999.0,72,0.00,,,0.00,open2300 v1.10,2013-05-09 05:33:00,
2013-05-09 00:39:00,67.3,58.0,30.06,SSE,157,0.0,-999.0,72,0.00,,,0.00,open2300 v1.10,2013-05-09 05:39:00,
2013-05-09 00:44:00,67.3,58.0,30.06,SSW,202,4.7,-999.0,72,0.00,,,0.00,open2300 v1.10,2013-05-09 05:44:00,
2013-05-09 00:49:00,67.1,58.2,30.06,SSW,202,0.0,-999.0,73,0.00,,,0.00,open2300 v1.10,2013-05-09 05:49:00,
2013-05-09 00:54:00,66.9,58.0,30.05,SSW,202,0.0,-999.0,73,0.00,,,0.00,open2300 v1.10,2013-05-09 05:54:00,
2013-05-09 00:59:00,66.7,57.8,30.06,SSW,202,0.0,-999.0,73,0.00,,,0.00,open2300 v1.10,2013-05-09 05:59:00,
2013-05-09 01:08:00,66.6,58.0,30.05,SSW,202,2.9,-999.0,74,0.00,,,0.00,open2300 v1.10,2013-05-09 06:08:00,
2013-05-09 01:13:00,66.4,57.8,30.05,SSW,202,0.0,-999.0,74,0.00,,,0.00,open2300 v1.10,2013-05-09 06:13:00,
2013-05-09 01:18:00,66.2,57.6,30.05,South,180,0.0,-999.0,74,0.00,,,0.00,open2300 v1.10,2013-05-09 06:18:00,
2013-05-09 01:23:00,66.0,57.8,30.05,South,180,0.0,-999.0,75,0.00,,,0.00,open2300 v1.10,2013-05-09 06:23:00,
2013-05-09 01:28:00,66.0,57.8,30.05,SSW,202,1.3,-999.0,75,0.00,,,0.00,open2300 v1.10,2013-05-09 06:28:00,
2013-05-09 01:33:00,66.0,57.8,30.05,SSW,202,0.0,-999.0,75,0.00,,,0.00,open2300 v1.10,2013-05-09 06:33:00,
2013-05-09 01:38:00,65.8,57.7,30.05,South,180,0.0,-999.0,75,0.00,,,0.00,open2300 v1.10,2013-05-09 06:38:00,
2013-05-09 01:44:00,65.8,57.7,30.05,SSW,202,0.0,-999.0,75,0.00,,,0.00,open2300 v1.10,2013-05-09 06:44:00,
2013-05-09 01:54:00,65.8,58.0,30.04,West,270,0.0,-999.0,76,0.00,,,0.00,open2300 v1.10,2013-05-09 06:54:00,
2013-05-09 01:59:00,66.0,58.2,30.05,SSW,202,1.8,-999.0,76,0.00,,,0.00,open2300 v1.10,2013-05-09 06:59:00,
2013-05-09 02:08:00,66.0,57.8,30.05,SW,225,2.5,-999.0,75,0.00,,,0.00,open2300 v1.10,2013-05-09 07:08:00,
2013-05-09 02:13:00,66.0,58.2,30.05,WSW,247,0.0,-999.0,76,0.00,,,0.00,open2300 v1.10,2013-05-09 07:13:00,
2013-05-09 02:18:00,66.0,58.2,30.05,SW,225,0.0,-999.0,76,0.00,,,0.00,open2300 v1.10,2013-05-09 07:18:00,
2013-05-09 02:23:00,65.8,58.0,30.04,SSW,202,0.0,-999.0,76,0.00,,,0.00,open2300 v1.10,2013-05-09 07:23:00,
2013-05-09 02:33:00,65.7,57.9,30.04,SSW,202,0.0,-999.0,76,0.00,,,0.00,open2300 v1.10,2013-05-09 07:33:00,
2013-05-09 02:39:00,65.5,57.7,30.04,South,180,2.7,-999.0,76,0.00,,,0.00,open2300 v1.10,2013-05-09 07:39:00,
2013-05-09 02:44:00,65.3,57.5,30.04,SSW,202,0.0,-999.0,76,0.00,,,0.00,open2300 v1.10,2013-05-09 07:44:00,
2013-05-09 02:49:00,65.3,57.9,30.04,SSW,202,0.0,-999.0,77,0.00,,,0.00,open2300 v1.10,2013-05-09 07:49:00,
2013-05-09 02:54:00,65.1,57.7,30.04,SW,225,0.0,-999.0,77,0.00,,,0.00,open2300 v1.10,2013-05-09 07:54:00,
2013-05-09 02:59:00,65.1,57.7,30.04,WNW,292,0.0,-999.0,77,0.00,,,0.00,open2300 v1.10,2013-05-09 07:59:00,
2013-05-09 03:08:00,65.1,57.7,30.05,West,270,3.1,-999.0,77,0.00,,,0.00,open2300 v1.10,2013-05-09 08:08:00,
2013-05-09 03:13:00,65.5,58.1,30.05,West,270,0.0,-999.0,77,0.00,,,0.00,open2300 v1.10,2013-05-09 08:13:00,
2013-05-09 03:18:00,65.5,58.1,30.05,West,270,0.0,-999.0,77,0.00,,,0.00,open2300 v1.10,2013-05-09 08:18:00,
2013-05-09 03:28:00,65.5,58.1,30.04,West,270,0.0,-999.0,77,0.00,,,0.00,open2300 v1.10,2013-05-09 08:28:00,
2013-05-09 03:33:00,65.3,57.9,30.05,WSW,247,0.0,-999.0,77,0.00,,,0.00,open2300 v1.10,2013-05-09 08:33:00,
2013-05-09 03:39:00,64.9,57.5,30.04,WSW,247,0.0,-999.0,77,0.00,,,0.00,open2300 v1.10,2013-05-09 08:39:00,
2013-05-09 03:49:00,64.8,57.7,30.04,WSW,247,0.0,-999.0,78,0.00,,,0.00,open2300 v1.10,2013-05-09 08:49:00,
2013-05-09 03:54:00,64.6,57.5,30.04,WSW,247,0.0,-999.0,78,0.00,,,0.00,open2300 v1.10,2013-05-09 08:54:00,
2013-05-09 03:59:00,64.2,57.2,30.04,WSW,247,0.0,-999.0,78,0.00,,,0.00,open2300 v1.10,2013-05-09 08:59:00,
2013-05-09 04:08:00,64.2,57.2,30.04,WSW,247,0.0,-999.0,78,0.00,,,0.00,open2300 v1.10,2013-05-09 09:08:00,
2013-05-09 04:13:00,64.0,57.0,30.05,West,270,0.0,-999.0,78,0.00,,,0.00,open2300 v1.10,2013-05-09 09:13:00,
2013-05-09 04:18:00,64.0,57.0,30.05,West,270,0.0,-999.0,78,0.00,,,0.00,open2300 v1.10,2013-05-09 09:18:00,
2013-05-09 04:23:00,64.0,57.0,30.05,WSW,247,0.0,-999.0,78,0.00,,,0.00,open2300 v1.10,2013-05-09 09:23:00,
2013-05-09 04:28:00,64.0,57.4,30.05,WSW,247,0.0,-999.0,79,0.00,,,0.00,open2300 v1.10,2013-05-09 09:28:00,
2013-05-09 04:33:00,64.0,57.4,30.06,West,270,0.0,-999.0,79,0.00,,,0.00,open2300 v1.10,2013-05-09 09:33:00,
2013-05-09 04:39:00,64.0,57.4,30.06,West,270,0.0,-999.0,79,0.00,,,0.00,open2300 v1.10,2013-05-09 09:39:00,
2013-05-09 04:49:00,64.0,57.4,30.06,West,270,0.0,-999.0,79,0.00,,,0.00,open2300 v1.10,2013-05-09 09:49:00,
2013-05-09 04:54:00,64.0,57.4,30.06,WNW,292,0.0,-999.0,79,0.00,,,0.00,open2300 v1.10,2013-05-09 09:54:00,
2013-05-09 04:59:00,64.0,57.4,30.06,WNW,292,0.0,-999.0,79,0.00,,,0.00,open2300 v1.10,2013-05-09 09:59:00,
2013-05-09 05:08:00,64.2,57.6,30.08,WNW,292,0.0,-999.0,79,0.00,,,0.00,open2300 v1.10,2013-05-09 10:08:00,
2013-05-09 05:13:00,64.6,57.9,30.07,WNW,292,0.0,-999.0,79,0.00,,,0.00,open2300 v1.10,2013-05-09 10:13:00,
2013-05-09 05:18:00,64.6,57.9,30.07,WNW,292,0.0,-999.0,79,0.00,,,0.00,open2300 v1.10,2013-05-09 10:18:00,
2013-05-09 05:23:00,64.6,57.9,30.07,WNW,292,0.0,-999.0,79,0.00,,,0.00,open2300 v1.10,2013-05-09 10:23:00,
2013-05-09 05:28:00,64.4,57.7,30.07,WNW,292,0.0,-999.0,79,0.00,,,0.00,open2300 v1.10,2013-05-09 10:28:00,
2013-05-09 05:33:00,64.6,57.9,30.08,WNW,292,0.0,-999.0,79,0.00,,,0.00,open2300 v1.10,2013-05-09 10:33:00,
2013-05-09 05:39:00,64.6,57.9,30.08,West,270,0.0,-999.0,79,0.00,,,0.00,open2300 v1.10,2013-05-09 10:39:00,
2013-05-09 05:44:00,64.8,58.1,30.09,WNW,292,0.7,-999.0,79,0.00,,,0.00,open2300 v1.10,2013-05-09 10:44:00,
2013-05-09 05:49:00,64.9,58.3,30.08,WNW,292,0.0,-999.0,79,0.00,,,0.00,open2300 v1.10,2013-05-09 10:49:00,
2013-05-09 05:54:00,64.8,58.3,30.09,WNW,292,5.8,-999.0,79,0.00,,,0.00,open2300 v1.10,2013-05-09 10:54:00,
2013-05-09 06:03:00,64.8,58.1,30.09,WNW,292,0.0,-999.0,79,0.00,,,0.00,open2300 v1.10,2013-05-09 11:03:00,
2013-05-09 06:08:00,64.8,58.1,30.09,WNW,292,0.0,-999.0,79,0.00,,,0.00,open2300 v1.10,2013-05-09 11:08:00,
2013-05-09 06:13:00,64.8,58.1,30.09,WNW,292,0.0,-999.0,79,0.00,,,0.00,open2300 v1.10,2013-05-09 11:13:00,
2013-05-09 06:18:00,64.6,57.9,30.10,WNW,292,0.0,-999.0,79,0.00,,,0.00,open2300 v1.10,2013-05-09 11:18:00,
2013-05-09 06:23:00,64.6,57.9,30.10,WNW,292,0.0,-999.0,79,0.00,,,0.00,open2300 v1.10,2013-05-09 11:23:00,
2013-05-09 06:28:00,64.2,57.9,30.10,SSW,202,0.0,-999.0,80,0.00,,,0.00,open2300 v1.10,2013-05-09 11:28:00,
2013-05-09 06:33:00,64.2,57.9,30.11,SSW,202,0.0,-999.0,80,0.00,,,0.00,open2300 v1.10,2013-05-09 11:33:00,
2013-05-09 06:39:00,64.0,57.7,30.11,SSW,202,0.0,-999.0,80,0.00,,,0.00,open2300 v1.10,2013-05-09 11:39:00,
2013-05-09 06:49:00,64.2,58.3,30.10,SSW,202,0.0,-999.0,81,0.00,,,0.00,open2300 v1.10,2013-05-09 11:49:00,
2013-05-09 06:54:00,64.2,58.3,30.10,SSW,202,0.0,-999.0,81,0.00,,,0.00,open2300 v1.10,2013-05-09 11:54:00,
2013-05-09 06:59:00,64.6,58.6,30.10,SSW,202,0.0,-999.0,81,0.00,,,0.00,open2300 v1.10,2013-05-09 11:59:00,
2013-05-09 07:08:00,65.3,59.3,30.10,SSW,202,0.0,-999.0,81,0.00,,,0.00,open2300 v1.10,2013-05-09 12:08:00,
2013-05-09 07:13:00,65.8,59.5,30.10,South,180,0.0,-999.0,80,0.00,,,0.00,open2300 v1.10,2013-05-09 12:13:00,
2013-05-09 07:18:00,66.0,59.7,30.09,SSW,202,0.0,-999.0,80,0.00,,,0.00,open2300 v1.10,2013-05-09 12:18:00,
2013-05-09 07:23:00,66.4,60.1,30.09,South,180,0.0,-999.0,80,0.00,,,0.00,open2300 v1.10,2013-05-09 12:23:00,
2013-05-09 07:28:00,66.7,60.4,30.09,South,180,3.4,-999.0,80,0.00,,,0.00,open2300 v1.10,2013-05-09 12:28:00,
2013-05-09 07:33:00,67.1,60.4,30.10,South,180,0.0,-999.0,79,0.00,,,0.00,open2300 v1.10,2013-05-09 12:33:00,
2013-05-09 07:39:00,67.6,61.0,30.10,SSW,202,6.7,-999.0,79,0.00,,,0.00,open2300 v1.10,2013-05-09 12:39:00,
2013-05-09 07:49:00,68.4,61.7,30.10,South,180,0.0,-999.0,79,0.00,,,0.00,open2300 v1.10,2013-05-09 12:49:00,
2013-05-09 07:54:00,68.7,61.6,30.10,SSW,202,0.0,-999.0,78,0.00,,,0.00,open2300 v1.10,2013-05-09 12:54:00,
2013-05-09 07:59:00,69.4,62.2,30.11,SW,225,0.0,-999.0,78,0.00,,,0.00,open2300 v1.10,2013-05-09 12:59:00,
2013-05-09 08:08:00,70.3,63.1,30.09,WSW,247,3.8,-999.0,78,0.00,,,0.00,open2300 v1.10,2013-05-09 13:08:00,
2013-05-09 08:13:00,70.9,62.9,30.09,South,180,5.4,-999.0,76,0.00,,,0.00,open2300 v1.10,2013-05-09 13:13:00,
2013-05-09 08:18:00,71.4,63.4,30.10,SSW,202,9.6,-999.0,76,0.00,,,0.00,open2300 v1.10,2013-05-09 13:18:00,
2013-05-09 08:23:00,71.8,63.4,30.10,South,180,8.1,-999.0,75,0.00,,,0.00,open2300 v1.10,2013-05-09 13:23:00,
2013-05-09 08:28:00,72.5,63.8,30.10,NW,315,7.4,-999.0,74,0.00,,,0.00,open2300 v1.10,2013-05-09 13:28:00,
2013-05-09 08:33:00,73.0,63.9,30.10,WSW,247,0.0,-999.0,73,0.00,,,0.00,open2300 v1.10,2013-05-09 13:33:00,
2013-05-09 08:38:00,73.2,64.1,30.11,WSW,247,3.8,-999.0,73,0.00,,,0.00,open2300 v1.10,2013-05-09 13:38:00,
2013-05-09 08:44:00,73.9,64.4,30.11,SSW,202,6.3,-999.0,72,0.00,,,0.00,open2300 v1.10,2013-05-09 13:44:00,
2013-05-09 08:49:00,74.3,64.3,30.11,South,180,7.4,-999.0,71,0.00,,,0.00,open2300 v1.10,2013-05-09 13:49:00,
2013-05-09 08:54:00,74.8,64.8,30.11,South,180,0.4,-999.0,71,0.00,,,0.00,open2300 v1.10,2013-05-09 13:54:00,
2013-05-09 08:59:00,75.4,64.5,30.11,WNW,292,0.0,-999.0,69,0.00,,,0.00,open2300 v1.10,2013-05-09 13:59:00,
2013-05-09 09:08:00,75.9,64.6,30.11,NW,315,5.4,-999.0,68,0.00,,,0.00,open2300 v1.10,2013-05-09 14:08:00,
2013-05-09 09:13:00,76.3,64.5,30.11,WNW,292,1.8,-999.0,67,0.00,,,0.00,open2300 v1.10,2013-05-09 14:13:00,
2013-05-09 09:18:00,76.5,64.7,30.11,WNW,292,6.5,-999.0,67,0.00,,,0.00,open2300 v1.10,2013-05-09 14:18:00,
2013-05-09 09:23:00,76.6,64.8,30.11,WNW,292,0.0,-999.0,67,0.00,,,0.00,open2300 v1.10,2013-05-09 14:23:00,
2013-05-09 09:28:00,76.8,65.0,30.11,SE,135,0.0,-999.0,67,0.00,,,0.00,open2300 v1.10,2013-05-09 14:28:00,
2013-05-09 09:33:00,77.2,65.4,30.12,SSW,202,0.0,-999.0,67,0.00,,,0.00,open2300 v1.10,2013-05-09 14:33:00,
2013-05-09 09:39:00,77.5,65.3,30.12,SW,225,0.0,-999.0,66,0.00,,,0.00,open2300 v1.10,2013-05-09 14:39:00,
2013-05-09 09:49:00,77.9,65.2,30.12,SSW,202,0.4,-999.0,65,0.00,,,0.00,open2300 v1.10,2013-05-09 14:49:00,
2013-05-09 09:54:00,78.1,65.3,30.12,South,180,0.0,-999.0,65,0.00,,,0.00,open2300 v1.10,2013-05-09 14:54:00,
2013-05-09 09:59:00,78.4,65.2,30.12,NW,315,7.8,-999.0,64,0.00,,,0.00,open2300 v1.10,2013-05-09 14:59:00,
2013-05-09 10:08:00,79.0,64.9,30.12,WNW,292,6.0,-999.0,62,0.00,,,0.00,open2300 v1.10,2013-05-09 15:08:00,
2013-05-09 10:13:00,79.2,65.1,30.13,WNW,292,11.4,-999.0,62,0.00,,,0.00,open2300 v1.10,2013-05-09 15:13:00,
2013-05-09 10:18:00,79.5,64.9,30.13,WNW,292,3.6,-999.0,61,0.00,,,0.00,open2300 v1.10,2013-05-09 15:18:00,
2013-05-09 10:23:00,79.5,64.5,30.13,WSW,247,0.9,-999.0,60,0.00,,,0.00,open2300 v1.10,2013-05-09 15:23:00,
2013-05-09 10:28:00,79.7,64.7,30.13,WNW,292,11.4,-999.0,60,0.00,,,0.00,open2300 v1.10,2013-05-09 15:28:00,
2013-05-09 10:33:00,80.1,65.0,30.13,WNW,292,6.9,-999.0,60,0.00,,,0.00,open2300 v1.10,2013-05-09 15:33:00,
2013-05-09 10:39:00,80.2,64.6,30.14,WNW,292,2.7,-999.0,59,0.00,,,0.00,open2300 v1.10,2013-05-09 15:39:00,
2013-05-09 10:49:00,80.6,65.0,30.13,WSW,247,6.0,-999.0,59,0.00,,,0.00,open2300 v1.10,2013-05-09 15:49:00,
2013-05-09 10:54:00,80.6,64.4,30.13,West,270,0.9,-999.0,58,0.00,,,0.00,open2300 v1.10,2013-05-09 15:54:00,
2013-05-09 10:59:00,80.6,64.4,30.13,South,180,0.0,-999.0,58,0.00,,,0.00,open2300 v1.10,2013-05-09 15:59:00,
2013-05-09 11:08:00,81.0,64.8,30.13,WNW,292,9.6,-999.0,58,0.00,,,0.00,open2300 v1.10,2013-05-09 16:08:00,
2013-05-09 11:13:00,81.1,64.4,30.13,West,270,0.0,-999.0,57,0.00,,,0.00,open2300 v1.10,2013-05-09 16:13:00,
2013-05-09 11:18:00,81.5,64.7,30.13,West,270,1.3,-999.0,57,0.00,,,0.00,open2300 v1.10,2013-05-09 16:18:00,
2013-05-09 11:23:00,81.7,64.9,30.13,SSW,202,3.1,-999.0,57,0.00,,,0.00,open2300 v1.10,2013-05-09 16:23:00,
2013-05-09 11:28:00,82.0,65.2,30.13,SSE,157,0.0,-999.0,57,0.00,,,0.00,open2300 v1.10,2013-05-09 16:28:00,
2013-05-09 11:33:00,82.2,65.4,30.13,WSW,247,0.0,-999.0,57,0.00,,,0.00,open2300 v1.10,2013-05-09 16:33:00,
2013-05-09 11:39:00,82.2,64.8,30.13,NW,315,0.0,-999.0,56,0.00,,,0.00,open2300 v1.10,2013-05-09 16:39:00,
2013-05-09 11:49:00,82.6,65.2,30.13,West,270,0.0,-999.0,56,0.00,,,0.00,open2300 v1.10,2013-05-09 16:49:00,
2013-05-09 11:54:00,82.6,64.7,30.13,West,270,6.7,-999.0,55,0.00,,,0.00,open2300 v1.10,2013-05-09 16:54:00,
2013-05-09 11:59:00,82.6,64.7,30.13,SW,225,7.2,-999.0,55,0.00,,,0.00,open2300 v1.10,2013-05-09 16:59:00,
2013-05-09 12:08:00,82.2,64.3,30.12,WSW,247,0.0,-999.0,55,0.00,,,0.00,open2300 v1.10,2013-05-09 17:08:00,
2013-05-09 12:13:00,82.2,64.3,30.12,South,180,4.2,-999.0,55,0.00,,,0.00,open2300 v1.10,2013-05-09 17:13:00,
2013-05-09 12:18:00,82.0,63.6,30.12,SW,225,6.7,-999.0,54,0.00,,,0.00,open2300 v1.10,2013-05-09 17:18:00,
2013-05-09 12:23:00,82.0,63.6,30.12,West,270,4.7,-999.0,54,0.00,,,0.00,open2300 v1.10,2013-05-09 17:23:00,
2013-05-09 12:28:00,82.0,63.6,30.11,South,180,6.3,-999.0,54,0.00,,,0.00,open2300 v1.10,2013-05-09 17:28:00,
2013-05-09 12:33:00,82.0,63.6,30.11,SSW,202,1.8,-999.0,54,0.00,,,0.00,open2300 v1.10,2013-05-09 17:33:00,
2013-05-09 12:39:00,82.0,63.6,30.11,SE,135,0.4,-999.0,54,0.00,,,0.00,open2300 v1.10,2013-05-09 17:39:00,
2013-05-09 12:44:00,82.2,63.3,30.11,South,180,0.0,-999.0,53,0.00,,,0.00,open2300 v1.10,2013-05-09 17:44:00,
2013-05-09 12:49:00,82.0,63.1,30.11,SSW,202,6.5,-999.0,53,0.00,,,0.00,open2300 v1.10,2013-05-09 17:49:00,
2013-05-09 12:54:00,82.2,63.3,30.11,WNW,292,0.0,-999.0,53,0.00,,,0.00,open2300 v1.10,2013-05-09 17:54:00,
2013-05-09 12:59:00,82.6,63.1,30.11,ENE,67,7.6,-999.0,52,0.00,,,0.00,open2300 v1.10,2013-05-09 17:59:00,
2013-05-09 13:08:00,82.8,63.3,30.11,SE,135,0.9,-999.0,52,0.00,,,0.00,open2300 v1.10,2013-05-09 18:08:00,
2013-05-09 13:13:00,82.9,62.9,30.11,SSE,157,0.0,-999.0,51,0.00,,,0.00,open2300 v1.10,2013-05-09 18:13:00,
2013-05-09 13:18:00,82.9,62.9,30.11,South,180,7.2,-999.0,51,0.00,,,0.00,open2300 v1.10,2013-05-09 18:18:00,
2013-05-09 13:23:00,82.9,62.9,30.10,WNW,292,0.0,-999.0,51,0.00,,,0.00,open2300 v1.10,2013-05-09 18:23:00,
2013-05-09 13:28:00,83.1,63.1,30.10,South,180,7.2,-999.0,51,0.00,,,0.00,open2300 v1.10,2013-05-09 18:28:00,
2013-05-09 13:33:00,83.3,63.3,30.10,South,180,6.0,-999.0,51,0.00,,,0.00,open2300 v1.10,2013-05-09 18:33:00,
2013-05-09 13:39:00,83.3,63.3,30.10,SW,225,0.4,-999.0,51,0.00,,,0.00,open2300 v1.10,2013-05-09 18:39:00,
2013-05-09 13:49:00,84.0,64.0,30.09,South,180,2.5,-999.0,51,0.00,,,0.00,open2300 v1.10,2013-05-09 18:49:00,
2013-05-09 13:54:00,84.0,63.5,30.09,SSW,202,10.7,-999.0,50,0.00,,,0.00,open2300 v1.10,2013-05-09 18:54:00,
2013-05-09 13:59:00,84.2,63.7,30.09,SW,225,5.4,-999.0,50,0.00,,,0.00,open2300 v1.10,2013-05-09 18:59:00,
2013-05-09 14:08:00,84.4,63.8,30.09,WNW,292,0.0,-999.0,50,0.00,,,0.00,open2300 v1.10,2013-05-09 19:08:00,
2013-05-09 14:13:00,84.4,63.2,30.09,SE,135,5.6,-999.0,49,0.00,,,0.00,open2300 v1.10,2013-05-09 19:13:00,
2013-05-09 14:18:00,84.2,63.7,30.08,SSW,202,8.1,-999.0,50,0.00,,,0.00,open2300 v1.10,2013-05-09 19:18:00,
2013-05-09 14:23:00,84.2,63.7,30.08,SSW,202,2.5,-999.0,50,0.00,,,0.00,open2300 v1.10,2013-05-09 19:23:00,
2013-05-09 14:28:00,84.6,63.4,30.08,SSW,202,6.7,-999.0,49,0.00,,,0.00,open2300 v1.10,2013-05-09 19:28:00,
2013-05-09 14:33:00,84.7,63.5,30.08,SSE,157,4.5,-999.0,49,0.00,,,0.00,open2300 v1.10,2013-05-09 19:33:00,
2013-05-09 14:38:00,84.7,63.5,30.08,South,180,5.8,-999.0,49,0.00,,,0.00,open2300 v1.10,2013-05-09 19:38:00,
2013-05-09 14:44:00,85.1,63.2,30.08,West,270,0.0,-999.0,48,0.00,,,0.00,open2300 v1.10,2013-05-09 19:44:00,
2013-05-09 14:49:00,85.1,63.9,30.08,WSW,247,0.0,-999.0,49,0.00,,,0.00,open2300 v1.10,2013-05-09 19:49:00,
2013-05-09 14:54:00,85.3,64.0,30.08,West,270,8.7,-999.0,49,0.00,,,0.00,open2300 v1.10,2013-05-09 19:54:00,
2013-05-09 14:59:00,85.3,64.0,30.07,WNW,292,0.0,-999.0,49,0.00,,,0.00,open2300 v1.10,2013-05-09 19:59:00,
2013-05-09 15:08:00,85.6,63.1,30.07,SW,225,4.0,-999.0,47,0.00,,,0.00,open2300 v1.10,2013-05-09 20:08:00,
2013-05-09 15:13:00,85.8,63.9,30.07,SSW,202,2.7,-999.0,48,0.00,,,0.00,open2300 v1.10,2013-05-09 20:13:00,
2013-05-09 15:18:00,86.2,63.6,30.06,West,270,6.3,-999.0,47,0.00,,,0.00,open2300 v1.10,2013-05-09 20:18:00,
2013-05-09 15:28:00,86.5,63.3,30.06,SSW,202,6.9,-999.0,46,0.00,,,0.00,open2300 v1.10,2013-05-09 20:28:00,
2013-05-09 15:33:00,86.5,63.3,30.05,SSE,157,6.3,-999.0,46,0.00,,,0.00,open2300 v1.10,2013-05-09 20:33:00,
2013-05-09 15:39:00,86.5,62.6,30.05,WSW,247,5.8,-999.0,45,0.00,,,0.00,open2300 v1.10,2013-05-09 20:39:00,
2013-05-09 15:49:00,86.4,62.5,30.05,WNW,292,0.0,-999.0,45,0.00,,,0.00,open2300 v1.10,2013-05-09 20:49:00,
2013-05-09 15:54:00,86.4,62.5,30.05,South,180,2.0,-999.0,45,0.00,,,0.00,open2300 v1.10,2013-05-09 20:54:00,
2013-05-09 15:59:00,86.5,62.6,30.04,SSE,157,0.0,-999.0,45,0.00,,,0.00,open2300 v1.10,2013-05-09 20:59:00,
2013-05-09 16:08:00,86.5,62.6,30.04,East,90,0.0,-999.0,45,0.00,,,0.00,open2300 v1.10,2013-05-09 21:08:00,
2013-05-09 16:13:00,86.5,62.6,30.04,WNW,292,9.2,-999.0,45,0.00,,,0.00,open2300 v1.10,2013-05-09 21:13:00,
2013-05-09 16:18:00,86.7,62.8,30.04,South,180,11.4,-999.0,45,0.00,,,0.00,open2300 v1.10,2013-05-09 21:18:00,
2013-05-09 16:23:00,86.9,63.0,30.04,SSW,202,0.0,-999.0,45,0.00,,,0.00,open2300 v1.10,2013-05-09 21:23:00,
2013-05-09 16:28:00,86.9,63.0,30.04,SSW,202,0.0,-999.0,45,0.00,,,0.00,open2300 v1.10,2013-05-09 21:28:00,
2013-05-09 16:33:00,87.1,63.1,30.04,SE,135,0.7,-999.0,45,0.00,,,0.00,open2300 v1.10,2013-05-09 21:33:00,
2013-05-09 16:38:00,86.9,63.0,30.04,WSW,247,5.4,-999.0,45,0.00,,,0.00,open2300 v1.10,2013-05-09 21:38:00,
2013-05-09 16:44:00,86.7,62.8,30.04,SSE,157,0.0,-999.0,45,0.00,,,0.00,open2300 v1.10,2013-05-09 21:44:00,
2013-05-09 16:49:00,86.5,62.6,30.03,East,90,0.0,-999.0,45,0.00,,,0.00,open2300 v1.10,2013-05-09 21:49:00,
2013-05-09 16:54:00,86.4,63.1,30.03,NW,315,0.7,-999.0,46,0.00,,,0.00,open2300 v1.10,2013-05-09 21:54:00,
2013-05-09 16:59:00,86.2,62.9,30.03,SE,135,5.6,-999.0,46,0.00,,,0.00,open2300 v1.10,2013-05-09 21:59:00,
2013-05-09 17:08:00,85.8,62.6,30.03,SE,135,8.5,-999.0,46,0.00,,,0.00,open2300 v1.10,2013-05-09 22:08:00,
2013-05-09 17:13:00,85.5,62.3,30.03,ESE,112,0.0,-999.0,46,0.00,,,0.00,open2300 v1.10,2013-05-09 22:13:00,
2013-05-09 17:18:00,84.9,62.4,30.03,SE,135,0.0,-999.0,47,0.00,,,0.00,open2300 v1.10,2013-05-09 22:18:00,
2013-05-09 17:23:00,84.7,62.9,30.03,SSW,202,3.6,-999.0,48,0.00,,,0.00,open2300 v1.10,2013-05-09 22:23:00,
2013-05-09 17:28:00,84.7,62.9,30.04,WSW,247,0.0,-999.0,48,0.00,,,0.00,open2300 v1.10,2013-05-09 22:28:00,
2013-05-09 17:33:00,84.7,63.5,30.04,ESE,112,0.0,-999.0,49,0.00,,,0.00,open2300 v1.10,2013-05-09 22:33:00,
2013-05-09 17:39:00,84.7,62.9,30.04,SE,135,8.1,-999.0,48,0.00,,,0.00,open2300 v1.10,2013-05-09 22:39:00,
2013-05-09 17:49:00,84.2,63.7,30.03,WSW,247,0.0,-999.0,50,0.00,,,0.00,open2300 v1.10,2013-05-09 22:49:00,
2013-05-09 17:54:00,84.0,62.9,30.04,South,180,0.0,-999.0,49,0.00,,,0.00,open2300 v1.10,2013-05-09 22:54:00,
2013-05-09 17:59:00,83.5,63.5,30.04,SSW,202,2.5,-999.0,51,0.00,,,0.00,open2300 v1.10,2013-05-09 22:59:00,
2013-05-09 18:08:00,82.9,62.9,30.03,SE,135,0.0,-999.0,51,0.00,,,0.00,open2300 v1.10,2013-05-09 23:08:00,
2013-05-09 18:13:00,82.8,62.8,30.03,SW,225,4.0,-999.0,51,0.00,,,0.00,open2300 v1.10,2013-05-09 23:13:00,
2013-05-09 18:18:00,82.2,62.8,30.03,SE,135,0.0,-999.0,52,0.00,,,0.00,open2300 v1.10,2013-05-09 23:18:00,
2013-05-09 18:23:00,82.0,63.1,30.03,SSW,202,0.0,-999.0,53,0.00,,,0.00,open2300 v1.10,2013-05-09 23:23:00,
2013-05-09 18:28:00,81.7,62.8,30.03,SW,225,0.0,-999.0,53,0.00,,,0.00,open2300 v1.10,2013-05-09 23:28:00,
2013-05-09 18:33:00,81.3,63.0,30.03,ESE,112,4.9,-999.0,54,0.00,,,0.00,open2300 v1.10,2013-05-09 23:33:00,
2013-05-09 18:39:00,81.3,63.0,30.03,NW,315,0.0,-999.0,54,0.00,,,0.00,open2300 v1.10,2013-05-09 23:39:00,
2013-05-09 18:49:00,80.8,63.0,30.03,South,180,1.1,-999.0,55,0.00,,,0.00,open2300 v1.10,2013-05-09 23:49:00,
2013-05-09 18:54:00,80.6,62.9,30.02,WSW,247,0.0,-999.0,55,0.00,,,0.00,open2300 v1.10,2013-05-09 23:54:00,
2013-05-09 18:59:00,80.4,62.7,30.02,SSW,202,0.0,-999.0,55,0.00,,,0.00,open2300 v1.10,2013-05-09 23:59:00,
2013-05-09 19:08:00,79.9,62.7,30.02,SSW,202,1.6,-999.0,56,0.00,,,0.00,open2300 v1.10,2013-05-10 00:08:00,
2013-05-09 19:13:00,79.7,62.6,30.03,SSW,202,0.0,-999.0,56,0.00,,,0.00,open2300 v1.10,2013-05-10 00:13:00,
2013-05-09 19:18:00,79.5,62.9,30.03,ESE,112,0.0,-999.0,57,0.00,,,0.00,open2300 v1.10,2013-05-10 00:18:00,
2013-05-09 19:23:00,79.3,62.8,30.04,South,180,0.0,-999.0,57,0.00,,,0.00,open2300 v1.10,2013-05-10 00:23:00,
2013-05-09 19:28:00,79.2,63.1,30.04,South,180,6.3,-999.0,58,0.00,,,0.00,open2300 v1.10,2013-05-10 00:28:00,
2013-05-09 19:33:00,79.0,63.0,30.04,West,270,0.0,-999.0,58,0.00,,,0.00,open2300 v1.10,2013-05-10 00:33:00,
2013-05-09 19:38:00,78.6,63.2,30.04,WNW,292,0.0,-999.0,59,0.00,,,0.00,open2300 v1.10,2013-05-10 00:38:00,
2013-05-09 19:44:00,78.6,63.2,30.04,South,180,0.0,-999.0,59,0.00,,,0.00,open2300 v1.10,2013-05-10 00:44:00,
2013-05-09 19:49:00,78.6,63.2,30.04,SW,225,0.0,-999.0,59,0.00,,,0.00,open2300 v1.10,2013-05-10 00:49:00,
2013-05-09 19:54:00,78.4,63.0,30.04,SSE,157,0.7,-999.0,59,0.00,,,0.00,open2300 v1.10,2013-05-10 00:54:00,
2013-05-09 19:59:00,78.1,63.1,30.04,SW,225,1.8,-999.0,60,0.00,,,0.00,open2300 v1.10,2013-05-10 00:59:00,
2013-05-09 20:08:00,77.5,62.6,30.04,SSE,157,0.0,-999.0,60,0.00,,,0.00,open2300 v1.10,2013-05-10 01:08:00,
2013-05-09 20:13:00,77.4,62.8,30.03,ESE,112,0.0,-999.0,61,0.00,,,0.00,open2300 v1.10,2013-05-10 01:13:00,
2013-05-09 20:18:00,76.8,62.3,30.03,South,180,0.4,-999.0,61,0.00,,,0.00,open2300 v1.10,2013-05-10 01:18:00,
2013-05-09 20:23:00,76.8,62.3,30.03,South,180,0.0,-999.0,61,0.00,,,0.00,open2300 v1.10,2013-05-10 01:23:00,
2013-05-09 20:33:00,76.3,62.3,30.03,WSW,247,1.6,-999.0,62,0.00,,,0.00,open2300 v1.10,2013-05-10 01:33:00,
2013-05-09 20:39:00,75.9,62.4,30.03,East,90,2.9,-999.0,63,0.00,,,0.00,open2300 v1.10,2013-05-10 01:39:00,
2013-05-09 20:49:00,75.6,62.5,30.03,South,180,0.0,-999.0,64,0.00,,,0.00,open2300 v1.10,2013-05-10 01:49:00,
2013-05-09 20:54:00,75.4,62.3,30.04,WNW,292,2.7,-999.0,64,0.00,,,0.00,open2300 v1.10,2013-05-10 01:54:00,
2013-05-09 20:59:00,75.0,62.4,30.04,SE,135,0.0,-999.0,65,0.00,,,0.00,open2300 v1.10,2013-05-10 01:59:00,
2013-05-09 21:08:00,75.0,62.4,30.04,South,180,0.0,-999.0,65,0.00,,,0.00,open2300 v1.10,2013-05-10 02:08:00,
2013-05-09 21:18:00,74.8,62.3,30.04,SSE,157,0.0,-999.0,65,0.00,,,0.00,open2300 v1.10,2013-05-10 02:18:00,
2013-05-09 21:23:00,74.8,62.7,30.05,South,180,2.7,-999.0,66,0.00,,,0.00,open2300 v1.10,2013-05-10 02:23:00,
2013-05-09 21:28:00,74.8,62.7,30.05,South,180,0.0,-999.0,66,0.00,,,0.00,open2300 v1.10,2013-05-10 02:28:00,
2013-05-09 21:33:00,74.7,62.5,30.05,SE,135,0.0,-999.0,66,0.00,,,0.00,open2300 v1.10,2013-05-10 02:33:00,
2013-05-09 21:38:00,74.5,62.3,30.04,SSE,157,5.1,-999.0,66,0.00,,,0.00,open2300 v1.10,2013-05-10 02:38:00,
2013-05-09 21:44:00,74.5,62.3,30.05,SSW,202,11.0,-999.0,66,0.00,,,0.00,open2300 v1.10,2013-05-10 02:44:00,
2013-05-09 21:49:00,74.3,62.6,30.04,SSE,157,3.1,-999.0,67,0.00,,,0.00,open2300 v1.10,2013-05-10 02:49:00,
2013-05-09 21:54:00,74.1,62.5,30.05,NNW,337,14.1,-999.0,67,0.00,,,0.00,open2300 v1.10,2013-05-10 02:54:00,
2013-05-09 21:59:00,74.1,62.5,30.04,SSE,157,0.0,-999.0,67,0.00,,,0.00,open2300 v1.10,2013-05-10 02:59:00,
2013-05-09 22:08:00,73.9,62.7,30.04,South,180,0.0,-999.0,68,0.00,,,0.00,open2300 v1.10,2013-05-10 03:08:00,
2013-05-09 22:18:00,73.8,63.0,30.05,SSW,202,0.0,-999.0,69,0.00,,,0.00,open2300 v1.10,2013-05-10 03:18:00,
2013-05-09 22:28:00,73.6,62.8,30.04,SSE,157,0.0,-999.0,69,0.00,,,0.00,open2300 v1.10,2013-05-10 03:28:00,
2013-05-09 22:33:00,73.6,63.3,30.04,South,180,3.8,-999.0,70,0.00,,,0.00,open2300 v1.10,2013-05-10 03:33:00,
2013-05-09 22:39:00,73.4,63.1,30.04,South,180,1.1,-999.0,70,0.00,,,0.00,open2300 v1.10,2013-05-10 03:39:00,
2013-05-09 22:44:00,73.2,63.0,30.04,South,180,8.1,-999.0,70,0.00,,,0.00,open2300 v1.10,2013-05-10 03:44:00,
2013-05-09 22:49:00,73.2,63.3,30.04,SSW,202,1.3,-999.0,71,0.00,,,0.00,open2300 v1.10,2013-05-10 03:49:00,
2013-05-09 22:54:00,73.0,63.2,30.04,SW,225,0.0,-999.0,71,0.00,,,0.00,open2300 v1.10,2013-05-10 03:54:00,
2013-05-09 22:59:00,73.0,63.2,30.04,SSE,157,1.3,-999.0,71,0.00,,,0.00,open2300 v1.10,2013-05-10 03:59:00,
2013-05-09 23:03:00,73.0,63.2,30.04,WSW,247,6.3,-999.0,71,0.00,,,0.00,open2300 v1.10,2013-05-10 04:03:00,
2013-05-09 23:08:00,72.9,63.4,30.03,SSE,157,4.0,-999.0,72,0.00,,,0.00,open2300 v1.10,2013-05-10 04:08:00,
2013-05-09 23:13:00,72.9,63.4,30.03,South,180,8.5,-999.0,72,0.00,,,0.00,open2300 v1.10,2013-05-10 04:13:00,
2013-05-09 23:18:00,72.7,63.2,30.03,East,90,1.6,-999.0,72,0.00,,,0.00,open2300 v1.10,2013-05-10 04:18:00,
2013-05-09 23:23:00,72.7,63.5,30.04,ENE,67,1.1,-999.0,73,0.00,,,0.00,open2300 v1.10,2013-05-10 04:23:00,
2013-05-09 23:28:00,72.5,63.4,30.03,NNE,22,3.8,-999.0,73,0.00,,,0.00,open2300 v1.10,2013-05-10 04:28:00,
2013-05-09 23:33:00,72.5,63.4,30.03,South,180,0.0,-999.0,73,0.00,,,0.00,open2300 v1.10,2013-05-10 04:33:00,
2013-05-09 23:38:00,72.3,63.2,30.02,ESE,112,7.2,-999.0,73,0.00,,,0.00,open2300 v1.10,2013-05-10 04:38:00,
2013-05-09 23:44:00,72.3,63.6,30.02,SSE,157,5.8,-999.0,74,0.00,,,0.00,open2300 v1.10,2013-05-10 04:44:00,
2013-05-09 23:49:00,72.1,63.4,30.02,SSW,202,9.2,-999.0,74,0.00,,,0.00,open2300 v1.10,2013-05-10 04:49:00,
2013-05-09 23:54:00,72.1,63.8,30.02,South,180,9.6,-999.0,75,0.00,,,0.00,open2300 v1.10,2013-05-10 04:54:00,
2013-05-09 23:59:00,72.0,63.6,30.02,South,180,9.4,-999.0,75,0.00,,,0.00,open2300 v1.10,2013-05-10 04:59:00,